Waggaman, Louisiana
Current Conditions -  °F | °C
As of 9:33 PM on Sunday 21 Dec 2014 (Local Time) from KMSY Reporting Station
Haze Haze  
Wind Chill: 56°   Ceiling: 600
Heat Index: 56°   Visibility: 4mi
Dew Point: 52°   Wind: 8mph
Humidity: 87%   Direction: 110°ESE
Pressure: 29.98"   Gusts: NA
Location:  29.9137°N, 90.2078°W
Report Text: KMSY 220333Z 11007KT 4SM BR BKN006 13/11 A2998 RMK AO2 T01330111
Loading
Personal Weather Stations






























Interactive Weather Map New forecast layout! Learn more

10-Day Weather Forecast

Advertisements
Track Severe Weather on mobile